createdAt,value
2023-02-19T00:01:42.720Z,71.17
2023-02-19T00:04:18.272Z,71.37
2023-02-19T00:06:46.237Z,71.33
2023-02-19T00:09:15.194Z,71.59
2023-02-19T00:11:43.050Z,71.60
2023-02-19T00:14:14.444Z,71.79
2023-02-19T00:16:41.278Z,71.49
2023-02-19T00:19:13.773Z,71.65
2023-02-19T00:21:40.508Z,71.68
2023-02-19T00:24:08.111Z,71.89
2023-02-19T00:26:35.613Z,71.74
2023-02-19T00:29:02.657Z,71.79
2023-02-19T00:31:33.000Z,72.01
2023-02-19T00:34:03.482Z,71.96
2023-02-19T00:36:30.948Z,72.00
2023-02-19T00:38:57.746Z,72.09
2023-02-19T00:41:25.460Z,72.46
2023-02-19T00:44:04.332Z,72.55
2023-02-19T00:46:33.696Z,72.69
2023-02-19T00:49:00.936Z,72.53
2023-02-19T00:51:33.000Z,72.70
2023-02-19T00:54:00.258Z,72.54
2023-02-19T00:56:27.246Z,72.98
2023-02-19T00:58:54.406Z,72.89
2023-02-19T01:01:21.242Z,72.71
2023-02-19T01:03:48.460Z,73.11
2023-02-19T01:06:18.648Z,72.71
2023-02-19T01:08:45.676Z,72.93
2023-02-19T01:11:12.963Z,73.11
2023-02-19T01:13:40.326Z,72.76
2023-02-19T01:16:11.836Z,73.03
2023-02-19T01:18:39.378Z,72.79
2023-02-19T01:21:08.003Z,72.99
2023-02-19T01:23:36.091Z,73.14
2023-02-19T01:26:13.406Z,72.98
2023-02-19T01:28:40.583Z,73.28
2023-02-19T01:31:11.195Z,73.16
2023-02-19T01:33:38.061Z,73.44
2023-02-19T01:36:06.749Z,73.32
2023-02-19T01:38:33.449Z,73.39
2023-02-19T01:41:03.132Z,73.90
2023-02-19T01:43:35.022Z,73.73
2023-02-19T01:46:01.826Z,73.94
2023-02-19T01:48:37.055Z,74.11
2023-02-19T01:51:12.197Z,73.76
2023-02-19T01:53:46.130Z,73.93
2023-02-19T01:56:16.166Z,73.97
2023-02-19T01:58:43.342Z,74.37
2023-02-19T02:01:12.038Z,74.03
2023-02-19T02:03:41.926Z,73.95
2023-02-19T02:06:17.393Z,74.38
2023-02-19T02:09:03.580Z,74.48
2023-02-19T02:11:30.918Z,74.39
2023-02-19T02:13:58.667Z,74.47
2023-02-19T02:16:34.767Z,74.14
2023-02-19T02:19:40.497Z,74.42
2023-02-19T02:22:19.914Z,74.54
2023-02-19T02:25:21.706Z,74.49
2023-02-19T02:28:08.680Z,74.30
2023-02-19T02:30:43.678Z,74.50
2023-02-19T02:33:33.314Z,74.51
2023-02-19T02:36:06.565Z,74.71
2023-02-19T02:38:37.477Z,74.26
2023-02-19T02:41:05.662Z,74.69
2023-02-19T02:43:32.898Z,74.51
2023-02-19T02:45:59.873Z,74.30
2023-02-19T02:48:54.152Z,74.53
2023-02-19T02:51:32.034Z,74.68
2023-02-19T02:54:30.219Z,74.18
2023-02-19T02:56:58.718Z,74.57
2023-02-19T02:59:34.108Z,74.29
2023-02-19T03:02:19.132Z,74.34
2023-02-19T03:05:22.307Z,74.40
2023-02-19T03:08:04.765Z,74.41
2023-02-19T03:10:48.644Z,74.74
2023-02-19T03:14:00.401Z,74.81
2023-02-19T03:16:50.472Z,74.63
2023-02-19T03:19:20.671Z,74.63
2023-02-19T03:22:02.795Z,74.63
2023-02-19T03:24:56.546Z,74.65
2023-02-19T03:27:26.910Z,74.73
2023-02-19T03:29:56.981Z,74.63
2023-02-19T03:32:44.666Z,75.19
2023-02-19T03:35:22.175Z,75.21
2023-02-19T03:38:03.091Z,75.28
2023-02-19T03:40:34.519Z,75.17
2023-02-19T03:43:08.428Z,75.46
2023-02-19T03:45:47.444Z,75.69
2023-02-19T03:48:23.197Z,75.86
2023-02-19T03:51:01.244Z,75.90
2023-02-19T03:54:03.260Z,76.06
2023-02-19T03:56:36.584Z,75.96
2023-02-19T03:59:11.987Z,76.40
2023-02-19T04:01:54.137Z,76.13
2023-02-19T04:04:24.358Z,76.40
2023-02-19T04:06:55.552Z,76.38
2023-02-19T04:09:25.464Z,76.57
2023-02-19T04:11:53.914Z,76.76
2023-02-19T04:14:26.418Z,77.04
2023-02-19T04:17:03.225Z,77.16
2023-02-19T04:19:35.107Z,77.09
2023-02-19T04:22:04.495Z,77.46
2023-02-19T04:24:44.720Z,77.50
2023-02-19T04:27:11.692Z,77.68
2023-02-19T04:29:39.282Z,77.77
2023-02-19T04:32:06.830Z,78.05
2023-02-19T04:34:33.507Z,77.94
2023-02-19T04:37:00.162Z,78.25
2023-02-19T04:39:27.199Z,78.30
2023-02-19T04:41:53.933Z,78.48
2023-02-19T04:44:20.868Z,78.56
2023-02-19T04:46:48.146Z,78.52
2023-02-19T04:49:14.931Z,78.64
2023-02-19T04:51:42.098Z,78.43
2023-02-19T04:54:09.095Z,78.80
2023-02-19T04:56:35.873Z,78.55
2023-02-19T04:59:02.874Z,78.86
2023-02-19T05:01:29.916Z,78.87
2023-02-19T05:03:56.575Z,78.92
2023-02-19T05:06:23.272Z,78.73
2023-02-19T05:08:50.119Z,78.89
2023-02-19T05:11:17.308Z,79.09
2023-02-19T05:13:44.080Z,78.84
2023-02-19T05:16:16.467Z,78.92
2023-02-19T05:18:45.655Z,78.78
2023-02-19T05:21:12.667Z,78.83
2023-02-19T05:23:40.435Z,79.03
2023-02-19T05:26:09.053Z,78.91
2023-02-19T05:28:36.232Z,79.28
2023-02-19T05:31:09.058Z,79.42
2023-02-19T05:33:37.360Z,79.28
2023-02-19T05:36:13.025Z,79.73
2023-02-19T05:38:40.246Z,79.60
2023-02-19T05:41:18.631Z,79.68
2023-02-19T05:43:46.922Z,80.10
2023-02-19T05:46:16.053Z,80.07
2023-02-19T05:48:43.407Z,80.17
2023-02-19T05:51:12.900Z,80.31
2023-02-19T05:53:40.269Z,80.34
2023-02-19T05:56:33.100Z,80.47
2023-02-19T05:59:03.883Z,80.63
2023-02-19T06:01:30.941Z,80.75
2023-02-19T06:03:58.638Z,80.59
2023-02-19T06:06:27.000Z,80.94
2023-02-19T06:08:54.124Z,80.78
2023-02-19T06:11:21.241Z,80.87
2023-02-19T06:13:50.183Z,80.83
2023-02-19T06:16:17.960Z,80.84
2023-02-19T06:18:46.195Z,81.13
2023-02-19T06:21:13.882Z,81.28
2023-02-19T06:23:41.081Z,81.07
2023-02-19T06:26:12.229Z,81.43
2023-02-19T06:28:40.204Z,81.48
2023-02-19T06:31:08.193Z,81.31
2023-02-19T06:33:35.777Z,81.35
2023-02-19T06:36:05.002Z,81.32
2023-02-19T06:38:31.801Z,81.24
2023-02-19T06:41:03.380Z,81.54
2023-02-19T06:43:31.067Z,81.68
2023-02-19T06:46:06.184Z,81.93
2023-02-19T06:48:33.748Z,81.89
2023-02-19T06:51:00.574Z,81.65
2023-02-19T06:53:27.926Z,81.62
2023-02-19T06:56:07.988Z,81.80
2023-02-19T06:58:35.313Z,82.08
2023-02-19T07:01:02.013Z,81.79
2023-02-19T07:03:28.810Z,82.18
2023-02-19T07:05:55.889Z,81.93
2023-02-19T07:08:22.576Z,82.01
2023-02-19T07:10:59.320Z,82.44
2023-02-19T07:13:27.266Z,82.45
2023-02-19T07:16:02.977Z,82.53
2023-02-19T07:18:30.451Z,82.58
2023-02-19T07:21:06.405Z,82.47
2023-02-19T07:23:33.207Z,82.52
2023-02-19T07:26:00.068Z,82.61
2023-02-19T07:28:27.279Z,82.74
2023-02-19T07:30:54.561Z,82.52
2023-02-19T07:33:21.220Z,82.66
2023-02-19T07:35:49.131Z,82.58
2023-02-19T07:38:23.572Z,82.68
2023-02-19T07:40:53.217Z,82.59
2023-02-19T07:43:20.279Z,82.19
2023-02-19T07:45:47.265Z,82.23
2023-02-19T07:48:14.245Z,82.25
2023-02-19T07:50:41.591Z,82.26
2023-02-19T07:53:08.250Z,82.06
2023-02-19T07:55:35.466Z,82.30
2023-02-19T07:58:02.105Z,81.96
2023-02-19T08:00:28.786Z,82.23
2023-02-19T08:03:02.842Z,82.16
2023-02-19T08:05:34.374Z,81.78
2023-02-19T08:08:01.152Z,81.66
2023-02-19T08:10:46.866Z,82.01
2023-02-19T08:13:25.662Z,81.79
2023-02-19T08:15:56.320Z,81.92
2023-02-19T08:18:26.874Z,81.83
2023-02-19T08:20:55.457Z,81.85
2023-02-19T08:23:22.479Z,82.12
2023-02-19T08:25:50.510Z,81.81
2023-02-19T08:28:18.465Z,81.81
2023-02-19T08:30:47.308Z,81.96
2023-02-19T08:33:19.420Z,82.05
2023-02-19T08:35:46.583Z,81.80
2023-02-19T08:38:14.578Z,81.88
2023-02-19T08:40:41.622Z,82.12
2023-02-19T08:43:11.348Z,81.82
2023-02-19T08:45:40.383Z,81.86
2023-02-19T08:48:07.963Z,82.08
2023-02-19T08:50:35.677Z,81.69
2023-02-19T08:53:03.987Z,81.90
2023-02-19T08:55:31.082Z,81.75
2023-02-19T08:57:57.983Z,81.89
2023-02-19T09:00:24.760Z,81.92
2023-02-19T09:02:51.644Z,82.12
2023-02-19T09:05:18.424Z,82.01
2023-02-19T09:07:45.064Z,82.00
2023-02-19T09:10:13.742Z,81.99
2023-02-19T09:12:41.036Z,81.91
2023-02-19T09:15:08.086Z,82.26
2023-02-19T09:17:35.077Z,81.92
2023-02-19T09:20:01.806Z,81.74
2023-02-19T09:22:28.532Z,81.84
2023-02-19T09:24:55.560Z,81.91
2023-02-19T09:27:22.187Z,81.81
2023-02-19T09:29:48.831Z,81.71
2023-02-19T09:32:17.504Z,81.54
2023-02-19T09:34:45.578Z,81.71
2023-02-19T09:37:12.204Z,81.76
2023-02-19T09:39:39.136Z,81.67
2023-02-19T09:42:22.401Z,81.35
2023-02-19T09:44:52.321Z,81.22
2023-02-19T09:47:21.911Z,81.16
2023-02-19T09:49:52.357Z,81.09
2023-02-19T09:52:24.384Z,80.74
2023-02-19T09:54:52.184Z,80.90
2023-02-19T09:57:21.712Z,80.45
2023-02-19T09:59:52.045Z,80.56
2023-02-19T10:02:21.487Z,80.13
2023-02-19T10:04:51.282Z,80.15
2023-02-19T10:07:46.005Z,80.31
2023-02-19T10:10:12.592Z,79.81
2023-02-19T10:12:48.068Z,79.72
2023-02-19T10:15:36.905Z,79.84
2023-02-19T10:18:05.736Z,79.51
2023-02-19T10:20:32.557Z,79.55
2023-02-19T10:23:02.204Z,79.24
2023-02-19T10:25:30.207Z,79.34
2023-02-19T10:27:59.589Z,79.25
2023-02-19T10:30:31.836Z,79.30
2023-02-19T10:33:13.454Z,79.24
2023-02-19T10:35:58.909Z,78.94
2023-02-19T10:38:40.386Z,78.88
2023-02-19T10:41:14.514Z,78.68
2023-02-19T10:43:50.241Z,78.61
2023-02-19T10:46:22.354Z,78.38
2023-02-19T10:48:55.062Z,78.43
2023-02-19T10:51:31.464Z,78.02
2023-02-19T10:54:35.475Z,77.95
2023-02-19T10:57:30.284Z,77.63
2023-02-19T11:00:22.813Z,77.62
2023-02-19T11:02:50.185Z,77.53
2023-02-19T11:05:22.411Z,77.68
2023-02-19T11:07:57.331Z,77.52
2023-02-19T11:10:28.426Z,77.49
2023-02-19T11:12:59.444Z,77.45
2023-02-19T11:15:32.338Z,77.44
2023-02-19T11:18:19.384Z,77.47
2023-02-19T11:20:50.809Z,77.06
2023-02-19T11:23:22.488Z,76.72
2023-02-19T11:25:50.571Z,76.62
2023-02-19T11:28:17.945Z,76.53
2023-02-19T11:30:47.662Z,76.51
2023-02-19T11:33:17.037Z,76.00
2023-02-19T11:35:45.017Z,75.86
2023-02-19T11:38:14.492Z,75.61
2023-02-19T11:40:53.616Z,75.73
2023-02-19T11:43:32.618Z,75.30
2023-02-19T11:46:07.181Z,75.13
2023-02-19T11:48:54.906Z,74.63
2023-02-19T11:51:31.513Z,74.64
2023-02-19T11:54:19.109Z,74.09
2023-02-19T11:56:53.533Z,73.85
2023-02-19T11:59:30.294Z,73.46
2023-02-19T12:02:17.914Z,73.12
2023-02-19T12:04:59.168Z,72.27
2023-02-19T12:07:41.070Z,71.86
2023-02-19T12:10:34.246Z,71.39
2023-02-19T12:13:13.854Z,71.10
2023-02-19T12:16:05.214Z,70.50
2023-02-19T12:18:49.746Z,70.23
2023-02-19T12:21:22.452Z,69.96
2023-02-19T12:24:12.361Z,69.62
2023-02-19T12:27:24.505Z,69.09
2023-02-19T12:30:03.357Z,68.58
2023-02-19T12:32:52.527Z,68.33
2023-02-19T12:35:34.930Z,68.33
2023-02-19T12:38:29.843Z,68.22
2023-02-19T12:41:19.722Z,67.91
2023-02-19T12:43:54.010Z,67.75
2023-02-19T12:46:36.507Z,67.14
2023-02-19T12:49:20.081Z,67.19
2023-02-19T12:51:49.571Z,67.15
2023-02-19T12:54:31.163Z,66.80
2023-02-19T12:57:01.387Z,66.42
2023-02-19T12:59:42.503Z,66.08
2023-02-19T13:02:24.104Z,65.83
2023-02-19T13:05:02.897Z,65.84
2023-02-19T13:07:47.804Z,65.82
2023-02-19T13:10:39.492Z,65.84
2023-02-19T13:13:12.582Z,65.69
2023-02-19T13:15:46.516Z,65.15
2023-02-19T13:18:40.896Z,65.00
2023-02-19T13:21:09.610Z,64.40
2023-02-19T13:23:59.738Z,63.55
2023-02-19T13:26:49.415Z,63.09
2023-02-19T13:29:21.633Z,62.63
2023-02-19T13:31:57.128Z,62.37
2023-02-19T13:34:29.621Z,61.78
2023-02-19T13:36:56.765Z,61.70
2023-02-19T13:39:23.806Z,61.39
2023-02-19T13:41:53.208Z,61.17
2023-02-19T13:44:23.217Z,60.94
2023-02-19T13:46:50.834Z,60.71
2023-02-19T13:49:30.070Z,60.12
2023-02-19T13:52:26.974Z,60.44
2023-02-19T13:55:31.837Z,60.00
2023-02-19T13:58:35.426Z,58.51
2023-02-19T14:01:08.244Z,56.74
2023-02-19T14:03:34.844Z,55.15
2023-02-19T14:06:06.548Z,53.51
2023-02-19T14:08:58.877Z,52.24
2023-02-19T14:11:44.332Z,50.69
2023-02-19T14:14:23.109Z,49.72
2023-02-19T14:16:57.071Z,49.11
2023-02-19T14:19:41.936Z,48.35
2023-02-19T14:22:57.971Z,47.49
2023-02-19T14:25:27.840Z,46.48
2023-02-19T14:28:11.752Z,46.18
2023-02-19T14:31:01.048Z,45.62
2023-02-19T14:33:36.404Z,45.54
2023-02-19T14:36:18.154Z,45.86
2023-02-19T14:38:58.564Z,46.20
2023-02-19T14:41:27.070Z,47.02
2023-02-19T14:43:56.551Z,47.54
2023-02-19T14:46:37.979Z,48.01
2023-02-19T14:49:18.440Z,48.71
2023-02-19T14:51:51.550Z,49.58
2023-02-19T14:54:20.960Z,50.11
2023-02-19T14:56:52.565Z,50.80
2023-02-19T14:59:24.292Z,51.16
2023-02-19T15:02:27.240Z,52.08
2023-02-19T15:04:54.707Z,52.79
2023-02-19T15:07:33.375Z,53.07
2023-02-19T15:10:05.837Z,53.65
2023-02-19T15:13:06.783Z,54.20
2023-02-19T15:15:40.925Z,54.83
2023-02-19T15:18:07.848Z,55.50
2023-02-19T15:20:38.031Z,55.80
2023-02-19T15:23:08.416Z,55.98
2023-02-19T15:25:38.215Z,56.52
2023-02-19T15:28:23.941Z,56.94
2023-02-19T15:30:52.134Z,57.04
2023-02-19T15:33:20.444Z,57.74
2023-02-19T15:35:56.145Z,57.65
2023-02-19T15:38:22.929Z,58.30
2023-02-19T15:40:50.561Z,58.34
2023-02-19T15:43:28.512Z,58.58
2023-02-19T15:46:01.346Z,59.10
2023-02-19T15:48:31.874Z,59.35
2023-02-19T15:51:08.284Z,59.70
2023-02-19T15:53:42.932Z,59.74
2023-02-19T15:56:20.664Z,60.17
2023-02-19T15:59:13.651Z,60.55
2023-02-19T16:01:40.812Z,60.54
2023-02-19T16:04:15.405Z,60.76
2023-02-19T16:06:52.937Z,61.29
2023-02-19T16:09:22.030Z,61.19
2023-02-19T16:11:54.521Z,61.29
2023-02-19T16:14:39.233Z,61.60
2023-02-19T16:17:12.684Z,61.79
2023-02-19T16:19:48.598Z,62.18
2023-02-19T16:22:19.687Z,62.26
2023-02-19T16:24:50.186Z,62.51
2023-02-19T16:27:37.647Z,62.60
2023-02-19T16:30:32.264Z,63.04
2023-02-19T16:33:36.932Z,63.21
2023-02-19T16:36:41.919Z,63.18
2023-02-19T16:39:08.647Z,63.31
2023-02-19T16:41:41.088Z,63.85
2023-02-19T16:44:31.212Z,64.12
2023-02-19T16:47:13.761Z,64.24
2023-02-19T16:49:42.800Z,64.43
2023-02-19T16:52:14.748Z,64.55
2023-02-19T16:54:41.511Z,64.54
2023-02-19T16:57:08.475Z,64.99
2023-02-19T16:59:35.174Z,65.04
2023-02-19T17:02:05.271Z,65.59
2023-02-19T17:04:32.315Z,65.44
2023-02-19T17:06:59.013Z,65.57
2023-02-19T17:09:25.778Z,65.84
2023-02-19T17:11:52.549Z,65.95
2023-02-19T17:14:19.484Z,66.11
2023-02-19T17:16:46.908Z,66.53
2023-02-19T17:19:17.395Z,67.04
2023-02-19T17:21:45.313Z,66.93
2023-02-19T17:24:12.245Z,67.32
2023-02-19T17:26:39.413Z,67.41
2023-02-19T17:29:07.466Z,67.50
2023-02-19T17:31:34.464Z,67.89
2023-02-19T17:34:01.372Z,67.94
2023-02-19T17:36:32.511Z,68.11
2023-02-19T17:39:00.632Z,68.36
2023-02-19T17:41:28.087Z,68.50
2023-02-19T17:43:55.267Z,68.74
2023-02-19T17:46:24.903Z,69.15
2023-02-19T17:48:51.927Z,69.50
2023-02-19T17:51:18.813Z,69.31
2023-02-19T17:53:46.730Z,69.34
2023-02-19T17:56:26.030Z,69.60
2023-02-19T17:58:53.627Z,69.97
2023-02-19T18:01:20.934Z,69.75
2023-02-19T18:03:47.791Z,70.07
2023-02-19T18:06:14.752Z,69.95
2023-02-19T18:08:48.335Z,70.27
2023-02-19T18:11:15.320Z,70.04
2023-02-19T18:13:42.054Z,70.19
2023-02-19T18:16:10.188Z,70.41
2023-02-19T18:18:37.265Z,70.31
2023-02-19T18:21:07.592Z,70.74
2023-02-19T18:23:34.458Z,70.77
2023-02-19T18:26:01.219Z,70.85
2023-02-19T18:28:27.915Z,70.91
2023-02-19T18:30:54.950Z,70.68
2023-02-19T18:33:21.709Z,71.24
2023-02-19T18:35:50.375Z,70.85
2023-02-19T18:38:17.333Z,71.05
2023-02-19T18:40:44.065Z,71.40
2023-02-19T18:43:10.886Z,71.15
2023-02-19T18:45:37.901Z,71.19
2023-02-19T18:48:05.162Z,71.66
2023-02-19T18:50:33.421Z,71.75
2023-02-19T18:53:00.227Z,71.78
2023-02-19T18:55:26.879Z,72.00
2023-02-19T18:57:53.656Z,71.85
2023-02-19T19:00:25.790Z,71.77
2023-02-19T19:02:57.723Z,72.03
2023-02-19T19:05:24.837Z,71.93
2023-02-19T19:07:55.631Z,72.42
2023-02-19T19:10:23.433Z,72.25
2023-02-19T19:12:50.522Z,72.58
2023-02-19T19:15:18.782Z,72.62
2023-02-19T19:17:46.291Z,72.31
2023-02-19T19:20:14.058Z,72.62
2023-02-19T19:22:40.997Z,72.84
2023-02-19T19:25:08.771Z,72.54
2023-02-19T19:27:35.489Z,72.90
2023-02-19T19:30:02.947Z,72.80
2023-02-19T19:32:29.654Z,72.87
2023-02-19T19:34:57.760Z,73.00
2023-02-19T19:37:28.424Z,73.29
2023-02-19T19:39:58.903Z,73.42
2023-02-19T19:42:25.789Z,73.35
2023-02-19T19:44:52.700Z,73.65
2023-02-19T19:47:19.524Z,73.42
2023-02-19T19:49:47.453Z,73.55
2023-02-19T19:52:14.896Z,74.10
2023-02-19T19:54:54.144Z,73.68
2023-02-19T19:57:21.440Z,73.90
2023-02-19T19:59:51.879Z,74.22
2023-02-19T20:02:19.476Z,73.90
2023-02-19T20:04:46.347Z,74.11
2023-02-19T20:07:41.522Z,74.22
2023-02-19T20:10:11.390Z,74.28
2023-02-19T20:12:43.438Z,74.42
2023-02-19T20:15:10.608Z,74.49
2023-02-19T20:17:37.647Z,74.51
2023-02-19T20:20:05.315Z,74.36
2023-02-19T20:22:32.266Z,74.28
2023-02-19T20:25:01.572Z,74.65
2023-02-19T20:27:28.926Z,74.45
2023-02-19T20:29:55.783Z,74.95
2023-02-19T20:32:22.903Z,74.83
2023-02-19T20:34:49.855Z,75.26
2023-02-19T20:37:16.631Z,75.37
2023-02-19T20:39:43.508Z,75.51
2023-02-19T20:42:10.581Z,75.39
2023-02-19T20:44:42.643Z,75.48
2023-02-19T20:47:09.495Z,75.25
2023-02-19T20:49:36.539Z,75.78
2023-02-19T20:52:07.370Z,75.58
2023-02-19T20:55:34.198Z,75.26
2023-02-19T20:58:00.903Z,75.28
2023-02-19T21:00:38.060Z,75.44
2023-02-19T21:06:48.283Z,75.79
2023-02-19T21:10:14.760Z,75.41
2023-02-19T21:12:42.335Z,75.74
2023-02-19T21:16:09.032Z,75.74
2023-02-19T21:18:50.722Z,75.92
2023-02-19T21:21:20.172Z,75.57
2023-02-19T21:24:46.748Z,75.72
2023-02-19T21:28:13.308Z,75.88
2023-02-19T21:31:40.124Z,76.05
2023-02-19T21:35:06.737Z,76.17
2023-02-19T21:38:15.704Z,76.07
2023-02-19T21:40:42.391Z,76.39
2023-02-19T21:47:00.557Z,76.41
2023-02-19T21:49:47.171Z,76.48
2023-02-19T21:53:13.967Z,76.56
2023-02-19T21:56:40.556Z,77.07
2023-02-19T22:00:07.533Z,76.88
2023-02-19T22:02:50.517Z,77.04
2023-02-19T22:05:46.067Z,76.96
2023-02-19T22:08:15.596Z,77.58
2023-02-19T22:10:42.687Z,77.54
2023-02-19T22:13:10.340Z,77.47
2023-02-19T22:15:39.750Z,77.69
2023-02-19T22:18:06.497Z,78.01
2023-02-19T22:20:34.912Z,78.09
2023-02-19T22:23:01.865Z,77.88
2023-02-19T22:25:28.644Z,77.87
2023-02-19T22:32:09.545Z,78.38
2023-02-19T22:34:40.735Z,78.35
2023-02-19T22:37:07.849Z,78.68
2023-02-19T22:39:34.775Z,78.98
2023-02-19T22:42:01.757Z,78.73
2023-02-19T22:44:29.069Z,78.77
2023-02-19T22:46:59.512Z,79.19
2023-02-19T22:49:26.420Z,79.18
2023-02-19T22:52:02.586Z,79.35
2023-02-19T22:54:29.503Z,79.04
2023-02-19T22:56:58.193Z,79.12
2023-02-19T22:59:25.181Z,79.36
2023-02-19T23:01:52.758Z,79.31
2023-02-19T23:04:25.094Z,79.58
2023-02-19T23:06:52.494Z,79.20
2023-02-19T23:09:22.651Z,79.49
2023-02-19T23:11:51.881Z,79.21
2023-02-19T23:14:20.776Z,79.67
2023-02-19T23:16:47.574Z,79.62
2023-02-19T23:19:15.990Z,79.73
2023-02-19T23:21:45.413Z,79.85
2023-02-19T23:24:13.869Z,79.61
2023-02-19T23:26:49.307Z,79.44
2023-02-19T23:29:23.468Z,79.94
2023-02-19T23:31:51.922Z,79.78
2023-02-19T23:34:19.584Z,79.87
2023-02-19T23:36:49.429Z,79.94
2023-02-19T23:39:19.990Z,79.84
2023-02-19T23:42:27.373Z,79.70
2023-02-19T23:45:53.899Z,79.67
2023-02-19T23:52:12.862Z,79.80
2023-02-19T23:54:39.607Z,79.77
2023-02-19T23:57:06.296Z,79.99
2023-02-19T23:59:33.072Z,79.86
